This is the latest recevied weather packets stored in our database for station/object N5VIS. If no packets are shown the sender has not sent any weather packets the latest 10 day(s).
| Time | Temp. | Humidity | Pressure | Rain* | Wind** | Luminosity | Snow |
|---|---|---|---|---|---|---|---|
| 1777830656 | 23.89° C | 35% | 1020.9 hPa | 0 mm | - | - | - |
| 1777830353 | 24.44° C | 33% | 1020.9 hPa | 0 mm | - | - | - |
| 1777830049 | 23.89° C | 37% | 1020.9 hPa | 0 mm | - | - | - |
| 1777829744 | 23.89° C | 36% | 1020.8 hPa | 0 mm | - | - | - |
| 1777829441 | 23.89° C | 34% | 1021 hPa | 0 mm | - | - | - |
| 1777829139 | 23.89° C | 37% | 1021.1 hPa | 0 mm | - | - | - |
| 1777828836 | 23.33° C | 38% | 1021.1 hPa | 0 mm | - | - | - |
| 1777828532 | 23.89° C | 36% | 1021.3 hPa | 0 mm | - | - | - |
| 1777828230 | 23.89° C | 36% | 1021.3 hPa | 0 mm | - | - | - |
| 1777827926 | 23.89° C | 36% | 1021.2 hPa | 0 mm | - | - | - |
| 1777827623 | 23.89° C | 36% | 1021.5 hPa | 0 mm | - | - | - |
| 1777827321 | 23.89° C | 37% | 1021.5 hPa | 0 mm | - | - | - |
| 1777827017 | 23.33° C | 39% | 1021.5 hPa | 0 mm | - | - | - |
| 1777826714 | 23.33° C | 39% | 1021.8 hPa | 0 mm | - | - | - |
| 1777826411 | 22.78° C | 38% | 1021.5 hPa | 0 mm | - | - | - |
| 1777826108 | 22.78° C | 38% | 1021.6 hPa | 0 mm | - | - | - |
| 1777825805 | 22.78° C | 38% | 1021.8 hPa | 0 mm | - | - | - |
| 1777825502 | 23.33° C | 35% | 1021.8 hPa | 0 mm | - | - | - |
| 1777825200 | 22.78° C | 36% | 1021.9 hPa | 0 mm | - | - | - |
| 1777824896 | 22.78° C | 39% | 1021.8 hPa | 0 mm | - | - | - |
| 1777824592 | 22.78° C | 39% | 1022.1 hPa | 0 mm | - | - | - |
| 1777824289 | 23.33° C | 38% | 1022 hPa | 0 mm | - | - | - |
| 1777823984 | 22.78° C | 38% | 1022 hPa | 0 mm | - | - | - |
| 1777823682 | 22.22° C | 43% | 1022.3 hPa | 0 mm | - | - | - |
| 1777823378 | 22.78° C | 43% | 1022.2 hPa | 0 mm | - | - | - |
* Rain latest hour (hover to see other rain measurements)
** Current wind speed in m/s (hover to see current wind gust speed)